sensor_id;sensor_type;location;lat;lon;timestamp;pressure;altitude;pressure_sealevel;temperature;humidity
46015;BME280;36844;51.898;-0.874;2023-06-05T00:01:45;101447.97;;;19.73;
46015;BME280;36844;51.898;-0.874;2023-06-05T00:04:11;101445.28;;;19.73;
46015;BME280;36844;51.898;-0.874;2023-06-05T00:06:36;101467.28;;;19.86;
46015;BME280;36844;51.898;-0.874;2023-06-05T00:09:03;101461.88;;;19.83;
46015;BME280;36844;51.898;-0.874;2023-06-05T00:11:28;101446.78;;;19.71;
46015;BME280;36844;51.898;-0.874;2023-06-05T00:13:54;101452.63;;;19.76;
46015;BME280;36844;51.898;-0.874;2023-06-05T00:16:19;101458.81;;;19.77;
46015;BME280;36844;51.898;-0.874;2023-06-05T00:18:45;101463.44;;;19.76;
46015;BME280;36844;51.898;-0.874;2023-06-05T00:21:12;101458.78;;;19.73;
46015;BME280;36844;51.898;-0.874;2023-06-05T00:23:38;101441.78;;;19.62;
46015;BME280;36844;51.898;-0.874;2023-06-05T00:26:03;101431.69;;;19.56;
46015;BME280;36844;51.898;-0.874;2023-06-05T00:28:28;101458.00;;;19.69;
46015;BME280;36844;51.898;-0.874;2023-06-05T00:30:54;101459.16;;;19.72;
46015;BME280;36844;51.898;-0.874;2023-06-05T00:33:19;101464.56;;;19.75;
46015;BME280;36844;51.898;-0.874;2023-06-05T00:35:44;101461.06;;;19.75;
46015;BME280;36844;51.898;-0.874;2023-06-05T00:38:10;101460.72;;;19.69;
46015;BME280;36844;51.898;-0.874;2023-06-05T00:40:36;101427.84;;;19.50;
46015;BME280;36844;51.898;-0.874;2023-06-05T00:43:01;101446.00;;;19.60;
46015;BME280;36844;51.898;-0.874;2023-06-05T00:45:27;101468.03;;;19.72;
46015;BME280;36844;51.898;-0.874;2023-06-05T00:47:52;101456.03;;;19.66;
46015;BME280;36844;51.898;-0.874;2023-06-05T00:50:19;101449.47;;;19.60;
46015;BME280;36844;51.898;-0.874;2023-06-05T00:52:47;101468.38;;;19.67;
46015;BME280;36844;51.898;-0.874;2023-06-05T00:55:12;101444.44;;;19.59;
46015;BME280;36844;51.898;-0.874;2023-06-05T00:57:38;101451.03;;;19.61;
46015;BME280;36844;51.898;-0.874;2023-06-05T01:00:05;101425.88;;;19.50;
46015;BME280;36844;51.898;-0.874;2023-06-05T01:02:32;101450.63;;;19.66;
46015;BME280;36844;51.898;-0.874;2023-06-05T01:04:59;101415.47;;;19.45;
46015;BME280;36844;51.898;-0.874;2023-06-05T01:07:25;101428.59;;;19.54;
46015;BME280;36844;51.898;-0.874;2023-06-05T01:09:53;101435.56;;;19.58;
46015;BME280;36844;51.898;-0.874;2023-06-05T01:14:48;101451.41;;;19.63;
46015;BME280;36844;51.898;-0.874;2023-06-05T01:17:14;101440.19;;;19.58;
46015;BME280;36844;51.898;-0.874;2023-06-05T01:19:43;101423.19;;;19.54;
46015;BME280;36844;51.898;-0.874;2023-06-05T01:22:10;101422.44;;;19.50;
46015;BME280;36844;51.898;-0.874;2023-06-05T01:24:37;101432.47;;;19.53;
46015;BME280;36844;51.898;-0.874;2023-06-05T01:27:14;101417.03;;;19.46;
46015;BME280;36844;51.898;-0.874;2023-06-05T01:35:04;101429.38;;;19.54;
46015;BME280;36844;51.898;-0.874;2023-06-05T01:37:32;101411.19;;;19.44;
46015;BME280;36844;51.898;-0.874;2023-06-05T01:40:10;101427.84;;;19.53;
46015;BME280;36844;51.898;-0.874;2023-06-05T01:42:37;101417.03;;;19.46;
46015;BME280;36844;51.898;-0.874;2023-06-05T01:45:04;101425.91;;;19.54;
46015;BME280;36844;51.898;-0.874;2023-06-05T01:47:31;101406.94;;;19.36;
46015;BME280;36844;51.898;-0.874;2023-06-05T01:49:57;101406.16;;;19.36;
46015;BME280;36844;51.898;-0.874;2023-06-05T01:52:22;101420.09;;;19.48;
46015;BME280;36844;51.898;-0.874;2023-06-05T01:54:47;101413.88;;;19.41;
46015;BME280;36844;51.898;-0.874;2023-06-05T01:57:15;101407.34;;;19.38;
46015;BME280;36844;51.898;-0.874;2023-06-05T01:59:40;101419.28;;;19.44;
46015;BME280;36844;51.898;-0.874;2023-06-05T02:02:05;101414.31;;;19.46;
46015;BME280;36844;51.898;-0.874;2023-06-05T02:04:31;101406.19;;;19.43;
46015;BME280;36844;51.898;-0.874;2023-06-05T02:06:57;101383.00;;;19.28;
46015;BME280;36844;51.898;-0.874;2023-06-05T02:09:28;101391.88;;;19.32;
46015;BME280;36844;51.898;-0.874;2023-06-05T02:11:54;101407.34;;;19.42;
46015;BME280;36844;51.898;-0.874;2023-06-05T02:14:19;101361.75;;;19.16;
46015;BME280;36844;51.898;-0.874;2023-06-05T02:16:45;101396.13;;;19.36;
46015;BME280;36844;51.898;-0.874;2023-06-05T02:19:13;101397.66;;;19.37;
46015;BME280;36844;51.898;-0.874;2023-06-05T02:21:39;101411.63;;;19.46;
46015;BME280;36844;51.898;-0.874;2023-06-05T02:24:04;101394.59;;;19.35;
46015;BME280;36844;51.898;-0.874;2023-06-05T02:26:30;101395.34;;;19.36;
46015;BME280;36844;51.898;-0.874;2023-06-05T02:28:56;101405.00;;;19.44;
46015;BME280;36844;51.898;-0.874;2023-06-05T02:31:22;101391.91;;;19.35;
46015;BME280;36844;51.898;-0.874;2023-06-05T02:33:53;101400.78;;;19.43;
46015;BME280;36844;51.898;-0.874;2023-06-05T02:36:19;101392.25;;;19.37;
46015;BME280;36844;51.898;-0.874;2023-06-05T02:38:44;101388.03;;;19.36;
46015;BME280;36844;51.898;-0.874;2023-06-05T02:41:10;101385.31;;;19.36;
46015;BME280;36844;51.898;-0.874;2023-06-05T02:43:36;101375.63;;;19.28;
46015;BME280;36844;51.898;-0.874;2023-06-05T02:46:01;101377.19;;;19.29;
46015;BME280;36844;51.898;-0.874;2023-06-05T02:48:26;101393.81;;;19.35;
46015;BME280;36844;51.898;-0.874;2023-06-05T02:50:52;101390.72;;;19.33;
46015;BME280;36844;51.898;-0.874;2023-06-05T02:53:17;101365.97;;;19.20;
46015;BME280;36844;51.898;-0.874;2023-06-05T02:55:43;101376.41;;;19.29;
46015;BME280;36844;51.898;-0.874;2023-06-05T02:58:10;101361.31;;;19.17;
46015;BME280;36844;51.898;-0.874;2023-06-05T03:00:38;101371.00;;;19.25;
46015;BME280;36844;51.898;-0.874;2023-06-05T03:03:03;101378.38;;;19.32;
46015;BME280;36844;51.898;-0.874;2023-06-05T03:05:29;101376.41;;;19.29;
46015;BME280;36844;51.898;-0.874;2023-06-05T03:07:54;101366.75;;;19.24;
46015;BME280;36844;51.898;-0.874;2023-06-05T03:10:20;101368.69;;;19.27;
46015;BME280;36844;51.898;-0.874;2023-06-05T03:12:46;101369.09;;;19.26;
46015;BME280;36844;51.898;-0.874;2023-06-05T03:15:11;101360.56;;;19.20;
46015;BME280;36844;51.898;-0.874;2023-06-05T03:17:37;101352.09;;;19.18;
46015;BME280;36844;51.898;-0.874;2023-06-05T03:20:02;101348.97;;;19.16;
46015;BME280;36844;51.898;-0.874;2023-06-05T03:22:28;101375.25;;;19.30;
46015;BME280;36844;51.898;-0.874;2023-06-05T03:24:54;101355.19;;;19.20;
46015;BME280;36844;51.898;-0.874;2023-06-05T03:27:20;101352.06;;;19.15;
46015;BME280;36844;51.898;-0.874;2023-06-05T03:29:45;101352.84;;;19.15;
46015;BME280;36844;51.898;-0.874;2023-06-05T03:32:11;101372.56;;;19.26;
46015;BME280;36844;51.898;-0.874;2023-06-05T03:34:36;101369.09;;;19.22;
46015;BME280;36844;51.898;-0.874;2023-06-05T03:37:03;101372.94;;;19.28;
46015;BME280;36844;51.898;-0.874;2023-06-05T03:39:28;101349.38;;;19.15;
46015;BME280;36844;51.898;-0.874;2023-06-05T03:41:54;101367.53;;;19.25;
46015;BME280;36844;51.898;-0.874;2023-06-05T03:44:19;101340.13;;;19.09;
46015;BME280;36844;51.898;-0.874;2023-06-05T03:46:46;101336.22;;;19.06;
46015;BME280;36844;51.898;-0.874;2023-06-05T03:49:11;101358.63;;;19.17;
46015;BME280;36844;51.898;-0.874;2023-06-05T03:51:37;101360.97;;;19.22;
46015;BME280;36844;51.898;-0.874;2023-06-05T03:54:05;101361.34;;;19.24;
46015;BME280;36844;51.898;-0.874;2023-06-05T03:56:30;101364.03;;;19.24;
46015;BME280;36844;51.898;-0.874;2023-06-05T03:59:02;101367.13;;;19.23;
46015;BME280;36844;51.898;-0.874;2023-06-05T04:01:35;101355.91;;;19.14;
46015;BME280;36844;51.898;-0.874;2023-06-05T04:04:03;101334.66;;;19.02;
46015;BME280;36844;51.898;-0.874;2023-06-05T04:06:30;101351.28;;;19.11;
46015;BME280;36844;51.898;-0.874;2023-06-05T04:08:58;101358.25;;;19.12;
46015;BME280;36844;51.898;-0.874;2023-06-05T04:11:23;101350.13;;;19.12;
46015;BME280;36844;51.898;-0.874;2023-06-05T04:13:54;101374.09;;;19.20;
46015;BME280;36844;51.898;-0.874;2023-06-05T04:16:20;101365.94;;;19.17;
46015;BME280;36844;51.898;-0.874;2023-06-05T04:18:46;101338.91;;;19.03;
46015;BME280;36844;51.898;-0.874;2023-06-05T04:21:11;101354.00;;;19.14;
46015;BME280;36844;51.898;-0.874;2023-06-05T04:23:36;101369.06;;;19.19;
46015;BME280;36844;51.898;-0.874;2023-06-05T04:26:02;101359.78;;;19.16;
46015;BME280;36844;51.898;-0.874;2023-06-05T04:28:28;101352.81;;;19.05;
46015;BME280;36844;51.898;-0.874;2023-06-05T04:30:54;101376.38;;;19.18;
46015;BME280;36844;51.898;-0.874;2023-06-05T04:33:21;101338.88;;;18.99;
46015;BME280;36844;51.898;-0.874;2023-06-05T04:35:46;101351.25;;;19.04;
46015;BME280;36844;51.898;-0.874;2023-06-05T04:38:11;101343.50;;;19.02;
46015;BME280;36844;51.898;-0.874;2023-06-05T04:40:37;101361.72;;;19.09;
46015;BME280;36844;51.898;-0.874;2023-06-05T04:43:02;101339.25;;;18.94;
46015;BME280;36844;51.898;-0.874;2023-06-05T04:45:28;101355.88;;;19.07;
46015;BME280;36844;51.898;-0.874;2023-06-05T04:47:53;101357.81;;;19.06;
46015;BME280;36844;51.898;-0.874;2023-06-05T04:50:26;101376.38;;;19.15;
46015;BME280;36844;51.898;-0.874;2023-06-05T04:52:52;101355.09;;;19.06;
46015;BME280;36844;51.898;-0.874;2023-06-05T04:55:18;101346.63;;;19.01;
46015;BME280;36844;51.898;-0.874;2023-06-05T04:57:44;101355.09;;;19.03;
46015;BME280;36844;51.898;-0.874;2023-06-05T05:00:10;101353.56;;;19.05;
46015;BME280;36844;51.898;-0.874;2023-06-05T05:02:36;101354.31;;;18.99;
46015;BME280;36844;51.898;-0.874;2023-06-05T05:05:01;101371.75;;;19.12;
46015;BME280;36844;51.898;-0.874;2023-06-05T05:07:27;101362.84;;;19.04;
46015;BME280;36844;51.898;-0.874;2023-06-05T05:09:53;101369.03;;;19.08;
46015;BME280;36844;51.898;-0.874;2023-06-05T05:12:19;101369.78;;;19.05;
46015;BME280;36844;51.898;-0.874;2023-06-05T05:14:44;101360.88;;;19.01;
46015;BME280;36844;51.898;-0.874;2023-06-05T05:17:10;101366.66;;;19.00;
46015;BME280;36844;51.898;-0.874;2023-06-05T05:19:35;101352.78;;;18.98;
46015;BME280;36844;51.898;-0.874;2023-06-05T05:22:04;101341.94;;;18.87;
46015;BME280;36844;51.898;-0.874;2023-06-05T05:24:30;101372.88;;;19.04;
46015;BME280;36844;51.898;-0.874;2023-06-05T05:26:55;101388.31;;;19.10;
46015;BME280;36844;51.898;-0.874;2023-06-05T05:29:21;101379.06;;;19.08;
46015;BME280;36844;51.898;-0.874;2023-06-05T05:31:46;101380.56;;;19.05;
46015;BME280;36844;51.898;-0.874;2023-06-05T05:34:11;101362.81;;;18.97;
46015;BME280;36844;51.898;-0.874;2023-06-05T05:36:37;101370.94;;;19.01;
46015;BME280;36844;51.898;-0.874;2023-06-05T05:39:03;101377.50;;;19.07;
46015;BME280;36844;51.898;-0.874;2023-06-05T05:41:29;101361.25;;;18.96;
46015;BME280;36844;51.898;-0.874;2023-06-05T05:43:54;101336.50;;;18.80;
46015;BME280;36844;51.898;-0.874;2023-06-05T05:46:20;101374.44;;;19.08;
46015;BME280;36844;51.898;-0.874;2023-06-05T05:48:45;101360.88;;;18.98;
46015;BME280;36844;51.898;-0.874;2023-06-05T05:51:11;101360.50;;;19.03;
46015;BME280;36844;51.898;-0.874;2023-06-05T05:53:36;101365.88;;;18.99;
46015;BME280;36844;51.898;-0.874;2023-06-05T05:56:02;101367.44;;;19.00;
46015;BME280;36844;51.898;-0.874;2023-06-05T05:58:29;101351.19;;;18.90;
46015;BME280;36844;51.898;-0.874;2023-06-05T06:00:54;101379.78;;;19.01;
46015;BME280;36844;51.898;-0.874;2023-06-05T06:03:19;101375.91;;;18.99;
46015;BME280;36844;51.898;-0.874;2023-06-05T06:05:46;101380.97;;;19.07;
46015;BME280;36844;51.898;-0.874;2023-06-05T06:08:11;101377.44;;;18.96;
46015;BME280;36844;51.898;-0.874;2023-06-05T06:10:37;101375.16;;;18.98;
46015;BME280;36844;51.898;-0.874;2023-06-05T06:13:03;101387.94;;;19.08;
46015;BME280;36844;51.898;-0.874;2023-06-05T06:15:32;101391.00;;;19.07;
46015;BME280;36844;51.898;-0.874;2023-06-05T06:17:57;101377.84;;;18.98;
46015;BME280;36844;51.898;-0.874;2023-06-05T06:20:25;101383.25;;;18.98;
46015;BME280;36844;51.898;-0.874;2023-06-05T06:22:50;101384.44;;;19.04;
46015;BME280;36844;51.898;-0.874;2023-06-05T06:25:16;101378.63;;;19.02;
46015;BME280;36844;51.898;-0.874;2023-06-05T06:27:43;101387.50;;;19.03;
46015;BME280;36844;51.898;-0.874;2023-06-05T06:30:11;101384.81;;;19.06;
46015;BME280;36844;51.898;-0.874;2023-06-05T06:32:37;101387.16;;;19.11;
46015;BME280;36844;51.898;-0.874;2023-06-05T06:35:02;101370.50;;;19.02;
46015;BME280;36844;51.898;-0.874;2023-06-05T06:37:29;101389.84;;;19.08;
46015;BME280;36844;51.898;-0.874;2023-06-05T06:39:55;101389.84;;;19.08;
46015;BME280;36844;51.898;-0.874;2023-06-05T06:42:21;101375.91;;;19.02;
46015;BME280;36844;51.898;-0.874;2023-06-05T06:44:46;101399.53;;;19.12;
46015;BME280;36844;51.898;-0.874;2023-06-05T06:47:11;101382.88;;;19.03;
46015;BME280;36844;51.898;-0.874;2023-06-05T06:49:37;101381.31;;;19.02;
46015;BME280;36844;51.898;-0.874;2023-06-05T06:52:03;101394.50;;;19.14;
46015;BME280;36844;51.898;-0.874;2023-06-05T06:54:28;101353.13;;;18.86;
46015;BME280;36844;51.898;-0.874;2023-06-05T06:56:55;101376.34;;;19.01;
46015;BME280;36844;51.898;-0.874;2023-06-05T06:59:21;101380.97;;;19.07;
46015;BME280;36844;51.898;-0.874;2023-06-05T07:02:07;101377.88;;;19.05;
46015;BME280;36844;51.898;-0.874;2023-06-05T07:04:33;101392.56;;;19.08;
46015;BME280;36844;51.898;-0.874;2023-06-05T07:06:59;101389.06;;;19.04;
46015;BME280;36844;51.898;-0.874;2023-06-05T07:09:25;101390.63;;;19.08;
46015;BME280;36844;51.898;-0.874;2023-06-05T07:11:50;101356.56;;;18.86;
46015;BME280;36844;51.898;-0.874;2023-06-05T07:14:16;101336.81;;;18.68;
46015;BME280;36844;51.898;-0.874;2023-06-05T07:16:41;101387.13;;;19.01;
46015;BME280;36844;51.898;-0.874;2023-06-05T07:19:06;101402.59;;;19.07;
46015;BME280;36844;51.898;-0.874;2023-06-05T07:21:32;101405.28;;;19.07;
46015;BME280;36844;51.898;-0.874;2023-06-05T07:24:03;101392.53;;;18.97;
46015;BME280;36844;51.898;-0.874;2023-06-05T07:26:28;101400.66;;;19.08;
46015;BME280;36844;51.898;-0.874;2023-06-05T07:28:54;101397.94;;;19.01;
46015;BME280;36844;51.898;-0.874;2023-06-05T07:31:19;101401.78;;;19.03;
46015;BME280;36844;51.898;-0.874;2023-06-05T07:33:46;101400.63;;;19.01;
46015;BME280;36844;51.898;-0.874;2023-06-05T07:36:13;101421.16;;;19.12;
46015;BME280;36844;51.898;-0.874;2023-06-05T07:38:39;101402.91;;;19.02;
46015;BME280;36844;51.898;-0.874;2023-06-05T07:41:06;101413.72;;;19.06;
46015;BME280;36844;51.898;-0.874;2023-06-05T07:43:31;101402.91;;;19.02;
46015;BME280;36844;51.898;-0.874;2023-06-05T07:45:57;101406.78;;;19.01;
46015;BME280;36844;51.898;-0.874;2023-06-05T07:48:22;101422.28;;;19.11;
46015;BME280;36844;51.898;-0.874;2023-06-05T07:50:48;101407.19;;;19.07;
46015;BME280;36844;51.898;-0.874;2023-06-05T07:53:13;101408.34;;;19.06;
46015;BME280;36844;51.898;-0.874;2023-06-05T07:55:38;101427.69;;;19.11;
46015;BME280;36844;51.898;-0.874;2023-06-05T07:58:04;101413.72;;;19.06;
46015;BME280;36844;51.898;-0.874;2023-06-05T08:00:29;101394.03;;;18.95;
46015;BME280;36844;51.898;-0.874;2023-06-05T08:02:55;101386.25;;;18.86;
46015;BME280;36844;51.898;-0.874;2023-06-05T08:05:22;101411.03;;;19.02;
46015;BME280;36844;51.898;-0.874;2023-06-05T08:07:48;101413.72;;;19.02;
46015;BME280;36844;51.898;-0.874;2023-06-05T08:10:13;101414.13;;;19.01;
46015;BME280;36844;51.898;-0.874;2023-06-05T08:12:39;101423.41;;;19.07;
46015;BME280;36844;51.898;-0.874;2023-06-05T08:15:05;101425.34;;;19.10;
46015;BME280;36844;51.898;-0.874;2023-06-05T08:17:31;101409.47;;;19.01;
46015;BME280;36844;51.898;-0.874;2023-06-05T08:19:56;101418.78;;;19.07;
46015;BME280;36844;51.898;-0.874;2023-06-05T08:22:22;101411.03;;;19.02;
46015;BME280;36844;51.898;-0.874;2023-06-05T08:24:48;101408.31;;;19.02;
46015;BME280;36844;51.898;-0.874;2023-06-05T08:27:15;101414.50;;;19.03;
46015;BME280;36844;51.898;-0.874;2023-06-05T08:29:40;101399.06;;;18.96;
46015;BME280;36844;51.898;-0.874;2023-06-05T08:32:06;101419.16;;;19.09;
46015;BME280;36844;51.898;-0.874;2023-06-05T08:34:31;101394.03;;;18.91;
46015;BME280;36844;51.898;-0.874;2023-06-05T08:36:58;101397.91;;;18.97;
46015;BME280;36844;51.898;-0.874;2023-06-05T08:39:26;101411.03;;;19.02;
46015;BME280;36844;51.898;-0.874;2023-06-05T08:41:57;101392.88;;;18.99;
46015;BME280;36844;51.898;-0.874;2023-06-05T08:44:27;101419.16;;;19.13;
46015;BME280;36844;51.898;-0.874;2023-06-05T08:47:00;101414.50;;;19.06;
46015;BME280;36844;51.898;-0.874;2023-06-05T08:49:27;101402.91;;;19.02;
46015;BME280;36844;51.898;-0.874;2023-06-05T08:52:02;101423.84;;;19.12;
46015;BME280;36844;51.898;-0.874;2023-06-05T08:54:35;101394.81;;;18.99;
46015;BME280;36844;51.898;-0.874;2023-06-05T08:57:01;101408.75;;;19.04;
46015;BME280;36844;51.898;-0.874;2023-06-05T08:59:28;101408.75;;;19.04;
46015;BME280;36844;51.898;-0.874;2023-06-05T09:01:53;101397.94;;;19.01;
46015;BME280;36844;51.898;-0.874;2023-06-05T09:04:19;101416.44;;;19.09;
46015;BME280;36844;51.898;-0.874;2023-06-05T09:06:47;101403.38;;;19.08;
46015;BME280;36844;51.898;-0.874;2023-06-05T09:09:14;101388.25;;;18.96;
46015;BME280;36844;51.898;-0.874;2023-06-05T09:11:40;101385.16;;;18.94;
46015;BME280;36844;51.898;-0.874;2023-06-05T09:14:05;101394.47;;;19.04;
46015;BME280;36844;51.898;-0.874;2023-06-05T09:16:41;101415.31;;;19.10;
46015;BME280;36844;51.898;-0.874;2023-06-05T09:19:08;101416.88;;;19.11;
46015;BME280;36844;51.898;-0.874;2023-06-05T09:21:34;101403.69;;;19.03;
46015;BME280;36844;51.898;-0.874;2023-06-05T09:27:04;101408.34;;;19.09;
46015;BME280;36844;51.898;-0.874;2023-06-05T09:29:39;101404.09;;;19.01;
46015;BME280;36844;51.898;-0.874;2023-06-05T09:32:09;101413.72;;;19.02;
46015;BME280;36844;51.898;-0.874;2023-06-05T09:34:36;101409.53;;;19.08;
46015;BME280;36844;51.898;-0.874;2023-06-05T09:37:04;101406.81;;;19.05;
46015;BME280;36844;51.898;-0.874;2023-06-05T09:39:31;101409.09;;;19.03;
46015;BME280;36844;51.898;-0.874;2023-06-05T09:41:58;101408.31;;;19.02;
46015;BME280;36844;51.898;-0.874;2023-06-05T09:44:24;101416.44;;;19.09;
46015;BME280;36844;51.898;-0.874;2023-06-05T09:49:18;101415.31;;;19.10;
46015;BME280;36844;51.898;-0.874;2023-06-05T09:51:45;101399.81;;;18.93;
46015;BME280;36844;51.898;-0.874;2023-06-05T09:54:12;101392.09;;;18.95;
46015;BME280;36844;51.898;-0.874;2023-06-05T09:56:39;101420.72;;;19.10;
46015;BME280;36844;51.898;-0.874;2023-06-05T09:59:08;101422.63;;;19.10;
46015;BME280;36844;51.898;-0.874;2023-06-05T10:01:36;101426.13;;;19.10;
46015;BME280;36844;51.898;-0.874;2023-06-05T10:04:07;101389.38;;;18.92;
46015;BME280;36844;51.898;-0.874;2023-06-05T10:06:34;101402.91;;;18.99;
46015;BME280;36844;51.898;-0.874;2023-06-05T10:08:59;101416.06;;;19.00;
46015;BME280;36844;51.898;-0.874;2023-06-05T10:11:26;101413.72;;;19.02;
46015;BME280;36844;51.898;-0.874;2023-06-05T10:13:52;101423.03;;;19.08;
46015;BME280;36844;51.898;-0.874;2023-06-05T10:16:19;101426.53;;;19.09;
46015;BME280;36844;51.898;-0.874;2023-06-05T10:18:49;101413.34;;;19.00;
46015;BME280;36844;51.898;-0.874;2023-06-05T10:21:15;101424.97;;;19.08;
46015;BME280;36844;51.898;-0.874;2023-06-05T10:23:50;101414.50;;;18.99;
46015;BME280;36844;51.898;-0.874;2023-06-05T10:31:48;101409.88;;;19.00;
46015;BME280;36844;51.898;-0.874;2023-06-05T10:34:32;101413.72;;;18.99;
46015;BME280;36844;51.898;-0.874;2023-06-05T10:39:34;101419.53;;;19.04;
46015;BME280;36844;51.898;-0.874;2023-06-05T10:42:01;101416.81;;;18.97;
46015;BME280;36844;51.898;-0.874;2023-06-05T10:44:40;101414.13;;;18.97;
46015;BME280;36844;51.898;-0.874;2023-06-05T10:52:54;101424.16;;;19.04;
46015;BME280;36844;51.898;-0.874;2023-06-05T10:55:21;101411.44;;;19.04;
46015;BME280;36844;51.898;-0.874;2023-06-05T10:58:08;101404.44;;;18.96;
46015;BME280;36844;51.898;-0.874;2023-06-05T11:00:35;101399.06;;;18.96;
46015;BME280;36844;51.898;-0.874;2023-06-05T11:03:01;101402.91;;;19.02;
46015;BME280;36844;51.898;-0.874;2023-06-05T11:05:27;101391.31;;;18.91;
46015;BME280;36844;51.898;-0.874;2023-06-05T11:08:15;101406.78;;;19.01;
46015;BME280;36844;51.898;-0.874;2023-06-05T11:11:02;101409.09;;;18.99;
46015;BME280;36844;51.898;-0.874;2023-06-05T11:13:51;101409.47;;;19.01;
46015;BME280;36844;51.898;-0.874;2023-06-05T11:16:31;101405.59;;;18.99;
46015;BME280;36844;51.898;-0.874;2023-06-05T11:22:06;101399.84;;;19.00;
46015;BME280;36844;51.898;-0.874;2023-06-05T11:24:36;101383.63;;;18.97;
46015;BME280;36844;51.898;-0.874;2023-06-05T11:27:03;101384.78;;;18.96;
46015;BME280;36844;51.898;-0.874;2023-06-05T11:29:29;101396.38;;;19.03;
46015;BME280;36844;51.898;-0.874;2023-06-05T11:31:54;101388.28;;;19.00;
46015;BME280;36844;51.898;-0.874;2023-06-05T11:34:20;101368.50;;;18.82;
46015;BME280;36844;51.898;-0.874;2023-06-05T11:36:46;101380.88;;;18.90;
46015;BME280;36844;51.898;-0.874;2023-06-05T11:39:13;101397.94;;;19.04;
46015;BME280;36844;51.898;-0.874;2023-06-05T11:41:46;101404.47;;;19.03;
46015;BME280;36844;51.898;-0.874;2023-06-05T11:44:12;101372.44;;;18.91;
46015;BME280;36844;51.898;-0.874;2023-06-05T11:46:38;101397.94;;;19.04;
46015;BME280;36844;51.898;-0.874;2023-06-05T11:49:05;101385.16;;;18.94;
46015;BME280;36844;51.898;-0.874;2023-06-05T11:51:34;101387.13;;;18.97;
46015;BME280;36844;51.898;-0.874;2023-06-05T11:54:00;101397.50;;;19.02;
46015;BME280;36844;51.898;-0.874;2023-06-05T11:56:26;101392.13;;;19.02;
46015;BME280;36844;51.898;-0.874;2023-06-05T11:58:53;101391.38;;;19.05;
46015;BME280;36844;51.898;-0.874;2023-06-05T12:01:19;101387.50;;;18.99;
46015;BME280;36844;51.898;-0.874;2023-06-05T12:04:09;101394.81;;;19.02;
46015;BME280;36844;51.898;-0.874;2023-06-05T12:06:41;101387.50;;;18.99;
46015;BME280;36844;51.898;-0.874;2023-06-05T12:09:11;101385.56;;;18.96;
46015;BME280;36844;51.898;-0.874;2023-06-05T12:11:37;101379.38;;;18.96;
46015;BME280;36844;51.898;-0.874;2023-06-05T12:14:03;101394.47;;;19.07;
46015;BME280;36844;51.898;-0.874;2023-06-05T12:16:40;101379.38;;;18.99;
46015;BME280;36844;51.898;-0.874;2023-06-05T12:19:12;101398.31;;;19.10;
46015;BME280;36844;51.898;-0.874;2023-06-05T12:21:38;101385.97;;;19.05;
46015;BME280;36844;51.898;-0.874;2023-06-05T12:24:05;101385.25;;;19.08;
46015;BME280;36844;51.898;-0.874;2023-06-05T12:29:18;101390.22;;;19.10;
46015;BME280;36844;51.898;-0.874;2023-06-05T12:31:44;101385.22;;;19.05;
46015;BME280;36844;51.898;-0.874;2023-06-05T12:34:10;101372.47;;;19.02;
46015;BME280;36844;51.898;-0.874;2023-06-05T12:36:39;101374.00;;;19.06;
46015;BME280;36844;51.898;-0.874;2023-06-05T12:39:06;101359.69;;;18.99;
46015;BME280;36844;51.898;-0.874;2023-06-05T12:41:32;101357.44;;;19.01;
46015;BME280;36844;51.898;-0.874;2023-06-05T12:44:04;101378.28;;;19.11;
46015;BME280;36844;51.898;-0.874;2023-06-05T12:46:34;101372.91;;;19.14;
46015;BME280;36844;51.898;-0.874;2023-06-05T12:49:00;101372.53;;;19.16;
46015;BME280;36844;51.898;-0.874;2023-06-05T12:51:27;101362.88;;;19.18;
46015;BME280;36844;51.898;-0.874;2023-06-05T12:53:56;101367.16;;;19.26;
46015;BME280;36844;51.898;-0.874;2023-06-05T12:56:25;101368.69;;;19.27;
46015;BME280;36844;51.898;-0.874;2023-06-05T12:58:56;101365.63;;;19.29;
46015;BME280;36844;51.898;-0.874;2023-06-05T13:01:25;101356.72;;;19.25;
46015;BME280;36844;51.898;-0.874;2023-06-05T13:03:52;101366.78;;;19.31;
46015;BME280;36844;51.898;-0.874;2023-06-05T13:06:18;101362.19;;;19.39;
46015;BME280;36844;51.898;-0.874;2023-06-05T13:08:44;101354.41;;;19.30;
46015;BME280;36844;51.898;-0.874;2023-06-05T13:11:11;101351.38;;;19.35;
46015;BME280;36844;51.898;-0.874;2023-06-05T13:13:36;101363.34;;;19.45;
46015;BME280;36844;51.898;-0.874;2023-06-05T13:16:03;101353.31;;;19.42;
46015;BME280;36844;51.898;-0.874;2023-06-05T13:18:32;101364.13;;;19.49;
46015;BME280;36844;51.898;-0.874;2023-06-05T13:20:58;101347.13;;;19.45;
46015;BME280;36844;51.898;-0.874;2023-06-05T13:23:23;101329.75;;;19.35;
46015;BME280;36844;51.898;-0.874;2023-06-05T13:25:49;101353.31;;;19.52;
46015;BME280;36844;51.898;-0.874;2023-06-05T13:28:14;101353.31;;;19.52;
46015;BME280;36844;51.898;-0.874;2023-06-05T13:30:40;101340.56;;;19.49;
46015;BME280;36844;51.898;-0.874;2023-06-05T13:33:05;101340.94;;;19.51;
46015;BME280;36844;51.898;-0.874;2023-06-05T13:35:30;101343.69;;;19.58;
46015;BME280;36844;51.898;-0.874;2023-06-05T13:37:56;101335.97;;;19.57;
46015;BME280;36844;51.898;-0.874;2023-06-05T13:40:21;101334.41;;;19.56;
46015;BME280;36844;51.898;-0.874;2023-06-05T13:42:46;101340.59;;;19.67;
46015;BME280;36844;51.898;-0.874;2023-06-05T13:45:13;101336.72;;;19.61;
46015;BME280;36844;51.898;-0.874;2023-06-05T13:47:38;101329.38;;;19.61;
46015;BME280;36844;51.898;-0.874;2023-06-05T13:50:04;101343.69;;;19.65;
46015;BME280;36844;51.898;-0.874;2023-06-05T13:52:30;101347.16;;;19.66;
46015;BME280;36844;51.898;-0.874;2023-06-05T13:54:55;101326.69;;;19.54;
46015;BME280;36844;51.898;-0.874;2023-06-05T13:57:20;101319.75;;;19.53;
46015;BME280;36844;51.898;-0.874;2023-06-05T13:59:46;101340.19;;;19.68;
46015;BME280;36844;51.898;-0.874;2023-06-05T14:02:11;101307.38;;;19.49;
46015;BME280;36844;51.898;-0.874;2023-06-05T14:04:37;101323.19;;;19.64;